Aviation Digital Data Service (ADDS)

Output produced by METARs form (1342 UTC 21 August 2019)
found at http://www.aviationweather.gov/metar/data/
 
METAR text: KMYR 211256Z 24005KT 10SM CLR 28/24 A3011 RMK AO2 SLP196 T02780244
Conditions at: KMYR (MYRTLE BEACH , SC, US) observed 1256 UTC 21 August 2019
Temperature: 27.8°C (82°F)
Dewpoint: 24.4°C (76°F) [RH = 82%]
Pressure (altimeter): 30.11 inches Hg (1019.7 mb)
[Sea-level pressure: 1019.6 mb]
Winds: from the WSW (240 degrees) at 6 MPH (5 knots; 2.6 m/s)
Visibility: 10 or more miles (16+ km)
Ceiling: at least 12,000 feet AGL
Clouds: sky clear below 12,000 feet AGL
Weather: no significant weather observed at this time

METAR text: KMYR 211156Z 23005KT 10SM CLR 27/24 A3011 RMK AO2 SLP194 T02670244 10283 20261 51005
Conditions at: KMYR (MYRTLE BEACH , SC, US) observed 1156 UTC 21 August 2019
Temperature: 26.7°C (80°F)
Dewpoint: 24.4°C (76°F) [RH = 87%]
Pressure (altimeter): 30.11 inches Hg (1019.7 mb)
[Sea-level pressure: 1019.4 mb]
Winds: from the SW (230 degrees) at 6 MPH (5 knots; 2.6 m/s)
Visibility: 10 or more miles (16+ km)
Ceiling: at least 12,000 feet AGL
Clouds: sky clear below 12,000 feet AGL
Weather: no significant weather observed at this time

METAR text: KMYR 211056Z 21005KT 10SM CLR 26/24 A3010 RMK AO2 SLP192 T02610244
Conditions at: KMYR (MYRTLE BEACH , SC, US) observed 1056 UTC 21 August 2019
Temperature: 26.1°C (79°F)
Dewpoint: 24.4°C (76°F) [RH = 90%]
Pressure (altimeter): 30.10 inches Hg (1019.4 mb)
[Sea-level pressure: 1019.2 mb]
Winds: from the SSW (210 degrees) at 6 MPH (5 knots; 2.6 m/s)
Visibility: 10 or more miles (16+ km)
Ceiling: at least 12,000 feet AGL
Clouds: sky clear below 12,000 feet AGL
Weather: no significant weather observed at this time

METAR text: KMYR 210956Z 22003KT 10SM CLR 27/24 A3010 RMK AO2 SLP191 T02670239
Conditions at: KMYR (MYRTLE BEACH , SC, US) observed 0956 UTC 21 August 2019
Temperature: 26.7°C (80°F)
Dewpoint: 23.9°C (75°F) [RH = 85%]
Pressure (altimeter): 30.10 inches Hg (1019.4 mb)
[Sea-level pressure: 1019.1 mb]
Winds: from the SW (220 degrees) at 3 MPH (3 knots; 1.5 m/s)
Visibility: 10 or more miles (16+ km)
Ceiling: at least 12,000 feet AGL
Clouds: sky clear below 12,000 feet AGL
Weather: no significant weather observed at this time

METAR text: KMYR 210856Z AUTO 21004KT 10SM CLR 27/24 A3009 RMK AO2 LTG DSNT NE AND E TSE04 SLP189 T02670244 56007
Conditions at: KMYR (MYRTLE BEACH , SC, US) observed 0856 UTC 21 August 2019
Temperature: 26.7°C (80°F)
Dewpoint: 24.4°C (76°F) [RH = 87%]
Pressure (altimeter): 30.09 inches Hg (1019.0 mb)
[Sea-level pressure: 1018.9 mb]
Winds: from the SSW (210 degrees) at 5 MPH (4 knots; 2.1 m/s)
Visibility: 10 or more miles (16+ km)
Ceiling: at least 12,000 feet AGL
Clouds: sky clear below 12,000 feet AGL
Weather: automated observation with no human augmentation;
there may or may not be significant weather present at this time

METAR text: KMYR 210815Z AUTO 23004KT 10SM CLR 27/24 A3009 RMK AO2 LTG DSNT E TSE04
Conditions at: KMYR (MYRTLE BEACH , SC, US) observed 0815 UTC 21 August 2019
Temperature: 27.0°C (81°F)
Dewpoint: 24.0°C (75°F) [RH = 84%]
Pressure (altimeter): 30.09 inches Hg (1019.0 mb)
Winds: from the SW (230 degrees) at 5 MPH (4 knots; 2.1 m/s)
Visibility: 10 or more miles (16+ km)
Ceiling: at least 12,000 feet AGL
Clouds: sky clear below 12,000 feet AGL
Weather: automated observation with no human augmentation;
there may or may not be significant weather present at this time

METAR text: KMYR 210756Z AUTO 21005KT 10SM VCTS CLR 27/24 A3009 RMK AO2 TSB18E28B30E33B34 SLP190 T02720244
Conditions at: KMYR (MYRTLE BEACH , SC, US) observed 0756 UTC 21 August 2019
Temperature: 27.2°C (81°F)
Dewpoint: 24.4°C (76°F) [RH = 85%]
Pressure (altimeter): 30.09 inches Hg (1019.0 mb)
[Sea-level pressure: 1019.0 mb]
Winds: from the SSW (210 degrees) at 6 MPH (5 knots; 2.6 m/s)
Visibility: 10 or more miles (16+ km)
Ceiling: at least 12,000 feet AGL
Clouds: sky clear below 12,000 feet AGL
Weather: VCTS  (thunderstorm in vicinity)

METAR text: KMYR 210734Z AUTO 23005KT 10SM TS FEW022 28/24 A3010 RMK AO2 TSB18E28B30E33B34
Conditions at: KMYR (MYRTLE BEACH , SC, US) observed 0734 UTC 21 August 2019
Temperature: 28.0°C (82°F)
Dewpoint: 24.0°C (75°F) [RH = 79%]
Pressure (altimeter): 30.10 inches Hg (1019.4 mb)
Winds: from the SW (230 degrees) at 6 MPH (5 knots; 2.6 m/s)
Visibility: 10 or more miles (16+ km)
Ceiling: at least 12,000 feet AGL
Clouds: few clouds at 2200 feet AGL
Weather: TS  (thunderstorm)

METAR text: KMYR 210730Z AUTO 21004KT 10SM TS SCT022 28/24 A3010 RMK AO2 TSB18E28B30
Conditions at: KMYR (MYRTLE BEACH , SC, US) observed 0730 UTC 21 August 2019
Temperature: 28.0°C (82°F)
Dewpoint: 24.0°C (75°F) [RH = 79%]
Pressure (altimeter): 30.10 inches Hg (1019.4 mb)
Winds: from the SSW (210 degrees) at 5 MPH (4 knots; 2.1 m/s)
Visibility: 10 or more miles (16+ km)
Ceiling: at least 12,000 feet AGL
Clouds: scattered clouds at 2200 feet AGL
Weather: TS  (thunderstorm)

METAR text: KMYR 210726Z AUTO 22004KT 10SM TS SCT022 SCT028 28/24 A3010 RMK AO2 TSB18
Conditions at: KMYR (MYRTLE BEACH , SC, US) observed 0726 UTC 21 August 2019
Temperature: 28.0°C (82°F)
Dewpoint: 24.0°C (75°F) [RH = 79%]
Pressure (altimeter): 30.10 inches Hg (1019.4 mb)
Winds: from the SW (220 degrees) at 5 MPH (4 knots; 2.1 m/s)
Visibility: 10 or more miles (16+ km)
Ceiling: at least 12,000 feet AGL
Clouds: scattered clouds at 2200 feet AGL
scattered clouds at 2800 feet AGL
Weather: TS  (thunderstorm)

METAR text: KMYR 210656Z AUTO 19008KT 10SM BKN024 BKN030 28/24 A3010 RMK AO2 SLP192 T02830239
Conditions at: KMYR (MYRTLE BEACH , SC, US) observed 0656 UTC 21 August 2019
Temperature: 28.3°C (83°F)
Dewpoint: 23.9°C (75°F) [RH = 77%]
Pressure (altimeter): 30.10 inches Hg (1019.4 mb)
[Sea-level pressure: 1019.2 mb]
Winds: from the S (190 degrees) at 9 MPH (8 knots; 4.1 m/s)
Visibility: 10 or more miles (16+ km)
Ceiling: 2400 feet AGL
Clouds: broken clouds at 2400 feet AGL
broken clouds at 3000 feet AGL
Weather: automated observation with no human augmentation;
there may or may not be significant weather present at this time

METAR text: KMYR 210556Z AUTO 18009KT 10SM SCT024 28/24 A3011 RMK AO2 SLP195 T02780239 10283 20278 56004
Conditions at: KMYR (MYRTLE BEACH , SC, US) observed 0556 UTC 21 August 2019
Temperature: 27.8°C (82°F)
Dewpoint: 23.9°C (75°F) [RH = 79%]
Pressure (altimeter): 30.11 inches Hg (1019.7 mb)
[Sea-level pressure: 1019.5 mb]
Winds: from the S (180 degrees) at 10 MPH (9 knots; 4.6 m/s)
Visibility: 10 or more miles (16+ km)
Ceiling: at least 12,000 feet AGL
Clouds: scattered clouds at 2400 feet AGL
Weather: automated observation with no human augmentation;
there may or may not be significant weather present at this time

METAR text: KMYR 210540Z AUTO 18010KT 10SM BKN024 28/24 A3011 RMK AO2
Conditions at: KMYR (MYRTLE BEACH , SC, US) observed 0540 UTC 21 August 2019
Temperature: 28.0°C (82°F)
Dewpoint: 24.0°C (75°F) [RH = 79%]
Pressure (altimeter): 30.11 inches Hg (1019.7 mb)
Winds: from the S (180 degrees) at 12 MPH (10 knots; 5.1 m/s)
Visibility: 10 or more miles (16+ km)
Ceiling: 2400 feet AGL
Clouds: broken clouds at 2400 feet AGL
Weather: automated observation with no human augmentation;
there may or may not be significant weather present at this time

METAR text: KMYR 210512Z AUTO 19009KT 10SM SCT022 28/24 A3011 RMK AO2
Conditions at: KMYR (MYRTLE BEACH , SC, US) observed 0512 UTC 21 August 2019
Temperature: 28.0°C (82°F)
Dewpoint: 24.0°C (75°F) [RH = 79%]
Pressure (altimeter): 30.11 inches Hg (1019.7 mb)
Winds: from the S (190 degrees) at 10 MPH (9 knots; 4.6 m/s)
Visibility: 10 or more miles (16+ km)
Ceiling: at least 12,000 feet AGL
Clouds: scattered clouds at 2200 feet AGL
Weather: automated observation with no human augmentation;
there may or may not be significant weather present at this time

METAR text: KMYR 210456Z AUTO 18010KT 10SM BKN024 28/24 A3011 RMK AO2 SLP196 T02830244 403060244
Conditions at: KMYR (MYRTLE BEACH , SC, US) observed 0456 UTC 21 August 2019
Temperature: 28.3°C (83°F)
Dewpoint: 24.4°C (76°F) [RH = 79%]
Pressure (altimeter): 30.11 inches Hg (1019.7 mb)
[Sea-level pressure: 1019.6 mb]
Winds: from the S (180 degrees) at 12 MPH (10 knots; 5.1 m/s)
Visibility: 10 or more miles (16+ km)
Ceiling: 2400 feet AGL
Clouds: broken clouds at 2400 feet AGL
Weather: automated observation with no human augmentation;
there may or may not be significant weather present at this time

METAR text: KMYR 210454Z AUTO 18009KT 10SM BKN024 28/24 A3011 RMK AO2 403060244
Conditions at: KMYR (MYRTLE BEACH , SC, US) observed 0454 UTC 21 August 2019
Temperature: 28.0°C (82°F)
Dewpoint: 24.0°C (75°F) [RH = 79%]
Pressure (altimeter): 30.11 inches Hg (1019.7 mb)
Winds: from the S (180 degrees) at 10 MPH (9 knots; 4.6 m/s)
Visibility: 10 or more miles (16+ km)
Ceiling: 2400 feet AGL
Clouds: broken clouds at 2400 feet AGL
Weather: automated observation with no human augmentation;
there may or may not be significant weather present at this time

METAR text: KMYR 210356Z AUTO 19011KT 10SM SCT024 28/24 A3012 RMK AO2 SLP199 T02830239
Conditions at: KMYR (MYRTLE BEACH , SC, US) observed 0356 UTC 21 August 2019
Temperature: 28.3°C (83°F)
Dewpoint: 23.9°C (75°F) [RH = 77%]
Pressure (altimeter): 30.12 inches Hg (1020.1 mb)
[Sea-level pressure: 1019.9 mb]
Winds: from the S (190 degrees) at 13 MPH (11 knots; 5.7 m/s)
Visibility: 10 or more miles (16+ km)
Ceiling: at least 12,000 feet AGL
Clouds: scattered clouds at 2400 feet AGL
Weather: automated observation with no human augmentation;
there may or may not be significant weather present at this time

METAR text: KMYR 210344Z AUTO 20009KT 10SM SCT022 SCT030 28/24 A3013 RMK AO2
Conditions at: KMYR (MYRTLE BEACH , SC, US) observed 0344 UTC 21 August 2019
Temperature: 28.0°C (82°F)
Dewpoint: 24.0°C (75°F) [RH = 79%]
Pressure (altimeter): 30.13 inches Hg (1020.4 mb)
Winds: from the SSW (200 degrees) at 10 MPH (9 knots; 4.6 m/s)
Visibility: 10 or more miles (16+ km)
Ceiling: at least 12,000 feet AGL
Clouds: scattered clouds at 2200 feet AGL
scattered clouds at 3000 feet AGL
Weather: automated observation with no human augmentation;
there may or may not be significant weather present at this time

METAR text: KMYR 210256Z AUTO 19008KT 10SM BKN020 28/24 A3013 RMK AO2 SLP202 T02830244 53010
Conditions at: KMYR (MYRTLE BEACH , SC, US) observed 0256 UTC 21 August 2019
Temperature: 28.3°C (83°F)
Dewpoint: 24.4°C (76°F) [RH = 79%]
Pressure (altimeter): 30.13 inches Hg (1020.4 mb)
[Sea-level pressure: 1020.2 mb]
Winds: from the S (190 degrees) at 9 MPH (8 knots; 4.1 m/s)
Visibility: 10 or more miles (16+ km)
Ceiling: 2000 feet AGL
Clouds: broken clouds at 2000 feet AGL
Weather: automated observation with no human augmentation;
there may or may not be significant weather present at this time

METAR text: KMYR 210221Z 19011KT 10SM SCT020 BKN025 28/25 A3012 RMK AO2
Conditions at: KMYR (MYRTLE BEACH , SC, US) observed 0221 UTC 21 August 2019
Temperature: 28.0°C (82°F)
Dewpoint: 25.0°C (77°F) [RH = 84%]
Pressure (altimeter): 30.12 inches Hg (1020.1 mb)
Winds: from the S (190 degrees) at 13 MPH (11 knots; 5.7 m/s)
Visibility: 10 or more miles (16+ km)
Ceiling: 2500 feet AGL
Clouds: scattered clouds at 2000 feet AGL
broken clouds at 2500 feet AGL
Weather: no significant weather observed at this time

METAR text: KMYR 210156Z 19008KT 10SM SCT020 28/25 A3012 RMK AO2 SLP197 T02830250
Conditions at: KMYR (MYRTLE BEACH , SC, US) observed 0156 UTC 21 August 2019
Temperature: 28.3°C (83°F)
Dewpoint: 25.0°C (77°F) [RH = 82%]
Pressure (altimeter): 30.12 inches Hg (1020.1 mb)
[Sea-level pressure: 1019.7 mb]
Winds: from the S (190 degrees) at 9 MPH (8 knots; 4.1 m/s)
Visibility: 10 or more miles (16+ km)
Ceiling: at least 12,000 feet AGL
Clouds: scattered clouds at 2000 feet AGL
Weather: no significant weather observed at this time

METAR text: KMYR 210111Z 19009KT 10SM SCT018 28/24 A3010 RMK AO2
Conditions at: KMYR (MYRTLE BEACH , SC, US) observed 0111 UTC 21 August 2019
Temperature: 28.0°C (82°F)
Dewpoint: 24.0°C (75°F) [RH = 79%]
Pressure (altimeter): 30.10 inches Hg (1019.4 mb)
Winds: from the S (190 degrees) at 10 MPH (9 knots; 4.6 m/s)
Visibility: 10 or more miles (16+ km)
Ceiling: at least 12,000 feet AGL
Clouds: scattered clouds at 1800 feet AGL
Weather: no significant weather observed at this time

METAR text: KMYR 210056Z 19010KT 10SM BKN018 28/25 A3010 RMK AO2 SLP192 T02830250
Conditions at: KMYR (MYRTLE BEACH , SC, US) observed 0056 UTC 21 August 2019
Temperature: 28.3°C (83°F)
Dewpoint: 25.0°C (77°F) [RH = 82%]
Pressure (altimeter): 30.10 inches Hg (1019.4 mb)
[Sea-level pressure: 1019.2 mb]
Winds: from the S (190 degrees) at 12 MPH (10 knots; 5.1 m/s)
Visibility: 10 or more miles (16+ km)
Ceiling: 1800 feet AGL
Clouds: broken clouds at 1800 feet AGL
Weather: no significant weather observed at this time

METAR text: KMYR 202356Z 18010KT 10SM FEW020 28/25 A3010 RMK AO2 SLP192 T02830250 10300 20278 58003
Conditions at: KMYR (MYRTLE BEACH , SC, US) observed 2356 UTC 20 August 2019
Temperature: 28.3°C (83°F)
Dewpoint: 25.0°C (77°F) [RH = 82%]
Pressure (altimeter): 30.10 inches Hg (1019.4 mb)
[Sea-level pressure: 1019.2 mb]
Winds: from the S (180 degrees) at 12 MPH (10 knots; 5.1 m/s)
Visibility: 10 or more miles (16+ km)
Ceiling: at least 12,000 feet AGL
Clouds: few clouds at 2000 feet AGL
Weather: no significant weather observed at this time

METAR text: KMYR 202256Z 18008KT 10SM CLR 29/24 A3011 RMK AO2 SLP195 T02940244
Conditions at: KMYR (MYRTLE BEACH , SC, US) observed 2256 UTC 20 August 2019
Temperature: 29.4°C (85°F)
Dewpoint: 24.4°C (76°F) [RH = 75%]
Pressure (altimeter): 30.11 inches Hg (1019.7 mb)
[Sea-level pressure: 1019.5 mb]
Winds: from the S (180 degrees) at 9 MPH (8 knots; 4.1 m/s)
Visibility: 10 or more miles (16+ km)
Ceiling: at least 12,000 feet AGL
Clouds: sky clear below 12,000 feet AGL
Weather: no significant weather observed at this time

METAR text: KMYR 202156Z 17009KT 10SM CLR 30/26 A3011 RMK AO2 SLP196 T03000256
Conditions at: KMYR (MYRTLE BEACH , SC, US) observed 2156 UTC 20 August 2019
Temperature: 30.0°C (86°F)
Dewpoint: 25.6°C (78°F) [RH = 77%]
Pressure (altimeter): 30.11 inches Hg (1019.7 mb)
[Sea-level pressure: 1019.6 mb]
Winds: from the S (170 degrees) at 10 MPH (9 knots; 4.6 m/s)
Visibility: 10 or more miles (16+ km)
Ceiling: at least 12,000 feet AGL
Clouds: sky clear below 12,000 feet AGL
Weather: no significant weather observed at this time

METAR text: KMYR 202056Z 17009KT 10SM FEW019 30/26 A3011 RMK AO2 SLP195 T03000256 56009
Conditions at: KMYR (MYRTLE BEACH , SC, US) observed 2056 UTC 20 August 2019
Temperature: 30.0°C (86°F)
Dewpoint: 25.6°C (78°F) [RH = 77%]
Pressure (altimeter): 30.11 inches Hg (1019.7 mb)
[Sea-level pressure: 1019.5 mb]
Winds: from the S (170 degrees) at 10 MPH (9 knots; 4.6 m/s)
Visibility: 10 or more miles (16+ km)
Ceiling: at least 12,000 feet AGL
Clouds: few clouds at 1900 feet AGL
Weather: no significant weather observed at this time

METAR text: KMYR 202052Z 17009KT 10SM FEW019 30/26 A3011 RMK AO2
Conditions at: KMYR (MYRTLE BEACH , SC, US) observed 2052 UTC 20 August 2019
Temperature: 30.0°C (86°F)
Dewpoint: 26.0°C (79°F) [RH = 79%]
Pressure (altimeter): 30.11 inches Hg (1019.7 mb)
Winds: from the S (170 degrees) at 10 MPH (9 knots; 4.6 m/s)
Visibility: 10 or more miles (16+ km)
Ceiling: at least 12,000 feet AGL
Clouds: few clouds at 1900 feet AGL
Weather: no significant weather observed at this time

METAR text: KMYR 202008Z 17008KT 10SM BKN019 BKN024 29/26 A3012 RMK AO2
Conditions at: KMYR (MYRTLE BEACH , SC, US) observed 2008 UTC 20 August 2019
Temperature: 29.0°C (84°F)
Dewpoint: 26.0°C (79°F) [RH = 84%]
Pressure (altimeter): 30.12 inches Hg (1020.1 mb)
Winds: from the S (170 degrees) at 9 MPH (8 knots; 4.1 m/s)
Visibility: 10 or more miles (16+ km)
Ceiling: 1900 feet AGL
Clouds: broken clouds at 1900 feet AGL
broken clouds at 2400 feet AGL
Weather: no significant weather observed at this time

METAR text: KMYR 201956Z COR 18007KT 10SM SCT024 29/26 A3012 RMK AO2 SLP199 T02940256
Conditions at: KMYR (MYRTLE BEACH , SC, US) observed 1956 UTC 20 August 2019
Temperature: 29.4°C (85°F)
Dewpoint: 25.6°C (78°F) [RH = 80%]
Pressure (altimeter): 30.12 inches Hg (1020.1 mb)
[Sea-level pressure: 1019.9 mb]
Winds: from the S (180 degrees) at 8 MPH (7 knots; 3.6 m/s)
Visibility: 10 or more miles (16+ km)
Ceiling: at least 12,000 feet AGL
Clouds: scattered clouds at 2400 feet AGL
Weather: no significant weather observed at this time

METAR text: KMYR 201856Z 00000KT 10SM FEW023 SCT035 29/23 A3014 RMK AO2 LTG DSNT NE TSE00 SLP204 T02890233
Conditions at: KMYR (MYRTLE BEACH , SC, US) observed 1856 UTC 20 August 2019
Temperature: 28.9°C (84°F)
Dewpoint: 23.3°C (74°F) [RH = 72%]
Pressure (altimeter): 30.14 inches Hg (1020.7 mb)
[Sea-level pressure: 1020.4 mb]
Winds: calm
Visibility: 10 or more miles (16+ km)
Ceiling: at least 12,000 feet AGL
Clouds: few clouds at 2300 feet AGL
scattered clouds at 3500 feet AGL
Weather: no significant weather observed at this time

METAR text: KMYR 201841Z 20004KT 10SM FEW021 SCT070 28/23 A3015 RMK AO2 LTG DSNT N AND NE AND SW TSE00
Conditions at: KMYR (MYRTLE BEACH , SC, US) observed 1841 UTC 20 August 2019
Temperature: 28.0°C (82°F)
Dewpoint: 23.0°C (73°F) [RH = 74%]
Pressure (altimeter): 30.15 inches Hg (1021.1 mb)
Winds: from the SSW (200 degrees) at 5 MPH (4 knots; 2.1 m/s)
Visibility: 10 or more miles (16+ km)
Ceiling: at least 12,000 feet AGL
Clouds: few clouds at 2100 feet AGL
scattered clouds at 7000 feet AGL
Weather: no significant weather observed at this time

METAR text: KMYR 201808Z 27008KT 210V290 8SM BKN019 29/24 A3016 RMK AO2 LTG DSNT N AND NW TSE00
Conditions at: KMYR (MYRTLE BEACH , SC, US) observed 1808 UTC 20 August 2019
Temperature: 29.0°C (84°F)
Dewpoint: 24.0°C (75°F) [RH = 74%]
Pressure (altimeter): 30.16 inches Hg (1021.4 mb)
Winds: from the W (270 degrees) at 9 MPH (8 knots; 4.1 m/s)
Visibility: 8 miles (13 km)
Ceiling: 1900 feet AGL
Clouds: broken clouds at 1900 feet AGL
Weather: no significant weather observed at this time

METAR text: KMYR 201756Z COR 19007KT 7SM VCTS FEW015 BKN025 29/26 A3016 RMK AO2 LTG DSNT W-NE TSE14B16E27B29E33B38 SLP212 T02940256 10306 20256 55000
Conditions at: KMYR (MYRTLE BEACH , SC, US) observed 1756 UTC 20 August 2019
Temperature: 29.4°C (85°F)
Dewpoint: 25.6°C (78°F) [RH = 80%]
Pressure (altimeter): 30.16 inches Hg (1021.4 mb)
[Sea-level pressure: 1021.2 mb]
Winds: from the S (190 degrees) at 8 MPH (7 knots; 3.6 m/s)
Visibility: 7 miles (11 km)
Ceiling: 2500 feet AGL
Clouds: few clouds at 1500 feet AGL
broken clouds at 2500 feet AGL
Weather: VCTS  (thunderstorm in vicinity)

METAR text: KMYR 201738Z 17008KT 10SM VCTS CLR 29/26 A3016 RMK AO2 LTG DSNT SW-N TSE14B16E27B29E33B38
Conditions at: KMYR (MYRTLE BEACH , SC, US) observed 1738 UTC 20 August 2019
Temperature: 29.0°C (84°F)
Dewpoint: 26.0°C (79°F) [RH = 84%]
Pressure (altimeter): 30.16 inches Hg (1021.4 mb)
Winds: from the S (170 degrees) at 9 MPH (8 knots; 4.1 m/s)
Visibility: 10 or more miles (16+ km)
Ceiling: at least 12,000 feet AGL
Clouds: sky clear below 12,000 feet AGL
Weather: VCTS  (thunderstorm in vicinity)

METAR text: KMYR 201729Z 17011KT 10SM VCTS CLR 30/26 A3015 RMK AO2 LTG DSNT SW-NW TSE14B16E27B29
Conditions at: KMYR (MYRTLE BEACH , SC, US) observed 1729 UTC 20 August 2019
Temperature: 30.0°C (86°F)
Dewpoint: 26.0°C (79°F) [RH = 79%]
Pressure (altimeter): 30.15 inches Hg (1021.1 mb)
Winds: from the S (170 degrees) at 13 MPH (11 knots; 5.7 m/s)
Visibility: 10 or more miles (16+ km)
Ceiling: at least 12,000 feet AGL
Clouds: sky clear below 12,000 feet AGL
Weather: VCTS  (thunderstorm in vicinity)

METAR text: KMYR 201725Z 17010KT 10SM VCTS CLR 31/26 A3015 RMK AO2 LTG DSNT SW-NW TSE14B16
Conditions at: KMYR (MYRTLE BEACH , SC, US) observed 1725 UTC 20 August 2019
Temperature: 31.0°C (88°F)
Dewpoint: 26.0°C (79°F) [RH = 75%]
Pressure (altimeter): 30.15 inches Hg (1021.1 mb)
Winds: from the S (170 degrees) at 12 MPH (10 knots; 5.1 m/s)
Visibility: 10 or more miles (16+ km)
Ceiling: at least 12,000 feet AGL
Clouds: sky clear below 12,000 feet AGL
Weather: VCTS  (thunderstorm in vicinity)

METAR text: KMYR 201656Z COR 17010KT 10SM TS CLR 31/26 A3015 RMK AO2 LTG DSNT SW-NW TSB48 SLP210 T03060256
Conditions at: KMYR (MYRTLE BEACH , SC, US) observed 1656 UTC 20 August 2019
Temperature: 30.6°C (87°F)
Dewpoint: 25.6°C (78°F) [RH = 75%]
Pressure (altimeter): 30.15 inches Hg (1021.1 mb)
[Sea-level pressure: 1021.0 mb]
Winds: from the S (170 degrees) at 12 MPH (10 knots; 5.1 m/s)
Visibility: 10 or more miles (16+ km)
Ceiling: at least 12,000 feet AGL
Clouds: sky clear below 12,000 feet AGL
Weather: TS  (thunderstorm)

METAR text: KMYR 201556Z 16008KT 10SM BKN035 30/25 A3016 RMK AO2 SLP213 T03000250
Conditions at: KMYR (MYRTLE BEACH , SC, US) observed 1556 UTC 20 August 2019
Temperature: 30.0°C (86°F)
Dewpoint: 25.0°C (77°F) [RH = 75%]
Pressure (altimeter): 30.16 inches Hg (1021.4 mb)
[Sea-level pressure: 1021.3 mb]
Winds: from the SSE (160 degrees) at 9 MPH (8 knots; 4.1 m/s)
Visibility: 10 or more miles (16+ km)
Ceiling: 3500 feet AGL
Clouds: broken clouds at 3500 feet AGL
Weather: no significant weather observed at this time

METAR text: KMYR 201456Z 17006KT 10SM SCT026 30/24 A3016 RMK AO2 SLP213 T03000244 51004
Conditions at: KMYR (MYRTLE BEACH , SC, US) observed 1456 UTC 20 August 2019
Temperature: 30.0°C (86°F)
Dewpoint: 24.4°C (76°F) [RH = 72%]
Pressure (altimeter): 30.16 inches Hg (1021.4 mb)
[Sea-level pressure: 1021.3 mb]
Winds: from the S (170 degrees) at 7 MPH (6 knots; 3.1 m/s)
Visibility: 10 or more miles (16+ km)
Ceiling: at least 12,000 feet AGL
Clouds: scattered clouds at 2600 feet AGL
Weather: no significant weather observed at this time

METAR text: KMYR 201436Z 15008KT 10SM BKN026 30/25 A3016 RMK AO2
Conditions at: KMYR (MYRTLE BEACH , SC, US) observed 1436 UTC 20 August 2019
Temperature: 30.0°C (86°F)
Dewpoint: 25.0°C (77°F) [RH = 75%]
Pressure (altimeter): 30.16 inches Hg (1021.4 mb)
Winds: from the SSE (150 degrees) at 9 MPH (8 knots; 4.1 m/s)
Visibility: 10 or more miles (16+ km)
Ceiling: 2600 feet AGL
Clouds: broken clouds at 2600 feet AGL
Weather: no significant weather observed at this time

METAR text: KMYR 201356Z 22005KT 10SM FEW022 29/24 A3016 RMK AO2 SLP211 T02890239
Conditions at: KMYR (MYRTLE BEACH , SC, US) observed 1356 UTC 20 August 2019
Temperature: 28.9°C (84°F)
Dewpoint: 23.9°C (75°F) [RH = 74%]
Pressure (altimeter): 30.16 inches Hg (1021.4 mb)
[Sea-level pressure: 1021.1 mb]
Winds: from the SW (220 degrees) at 6 MPH (5 knots; 2.6 m/s)
Visibility: 10 or more miles (16+ km)
Ceiling: at least 12,000 feet AGL
Clouds: few clouds at 2200 feet AGL
Weather: no significant weather observed at this time

METAR text: KMYR 201256Z 25004KT 10SM CLR 28/24 A3015 RMK AO2 SLP208 T02780244
Conditions at: KMYR (MYRTLE BEACH , SC, US) observed 1256 UTC 20 August 2019
Temperature: 27.8°C (82°F)
Dewpoint: 24.4°C (76°F) [RH = 82%]
Pressure (altimeter): 30.15 inches Hg (1021.1 mb)
[Sea-level pressure: 1020.8 mb]
Winds: from the WSW (250 degrees) at 5 MPH (4 knots; 2.1 m/s)
Visibility: 10 or more miles (16+ km)
Ceiling: at least 12,000 feet AGL
Clouds: sky clear below 12,000 feet AGL
Weather: no significant weather observed at this time

METAR text: KMYR 201156Z 00000KT 10SM CLR 26/24 A3015 RMK AO2 SLP208 T02560239 10267 20244 53012
Conditions at: KMYR (MYRTLE BEACH , SC, US) observed 1156 UTC 20 August 2019
Temperature: 25.6°C (78°F)
Dewpoint: 23.9°C (75°F) [RH = 90%]
Pressure (altimeter): 30.15 inches Hg (1021.1 mb)
[Sea-level pressure: 1020.8 mb]
Winds: calm
Visibility: 10 or more miles (16+ km)
Ceiling: at least 12,000 feet AGL
Clouds: sky clear below 12,000 feet AGL
Weather: no significant weather observed at this time

METAR text: KMYR 201056Z 00000KT 9SM CLR 24/24 A3013 RMK AO2 SLP203 T02440239
Conditions at: KMYR (MYRTLE BEACH , SC, US) observed 1056 UTC 20 August 2019
Temperature: 24.4°C (76°F)
Dewpoint: 23.9°C (75°F) [RH = 97%]
Pressure (altimeter): 30.13 inches Hg (1020.4 mb)
[Sea-level pressure: 1020.3 mb]
Winds: calm
Visibility: 9 miles (14 km)
Ceiling: at least 12,000 feet AGL
Clouds: sky clear below 12,000 feet AGL
Weather: no significant weather observed at this time

METAR text: KMYR 200956Z 00000KT 10SM CLR 25/24 A3012 RMK AO2 SLP200 T02500239
Conditions at: KMYR (MYRTLE BEACH , SC, US) observed 0956 UTC 20 August 2019
Temperature: 25.0°C (77°F)
Dewpoint: 23.9°C (75°F) [RH = 94%]
Pressure (altimeter): 30.12 inches Hg (1020.1 mb)
[Sea-level pressure: 1020.0 mb]
Winds: calm
Visibility: 10 or more miles (16+ km)
Ceiling: at least 12,000 feet AGL
Clouds: sky clear below 12,000 feet AGL
Weather: no significant weather observed at this time

METAR text: KMYR 200856Z AUTO 00000KT 10SM CLR 26/24 A3011 RMK AO2 SLP196 T02560239 53003
Conditions at: KMYR (MYRTLE BEACH , SC, US) observed 0856 UTC 20 August 2019
Temperature: 25.6°C (78°F)
Dewpoint: 23.9°C (75°F) [RH = 90%]
Pressure (altimeter): 30.11 inches Hg (1019.7 mb)
[Sea-level pressure: 1019.6 mb]
Winds: calm
Visibility: 10 or more miles (16+ km)
Ceiling: at least 12,000 feet AGL
Clouds: sky clear below 12,000 feet AGL
Weather: automated observation with no human augmentation;
there may or may not be significant weather present at this time

METAR text: KMYR 200756Z AUTO 22003KT 10SM CLR 26/24 A3011 RMK AO2 SLP195 T02610239
Conditions at: KMYR (MYRTLE BEACH , SC, US) observed 0756 UTC 20 August 2019
Temperature: 26.1°C (79°F)
Dewpoint: 23.9°C (75°F) [RH = 88%]
Pressure (altimeter): 30.11 inches Hg (1019.7 mb)
[Sea-level pressure: 1019.5 mb]
Winds: from the SW (220 degrees) at 3 MPH (3 knots; 1.5 m/s)
Visibility: 10 or more miles (16+ km)
Ceiling: at least 12,000 feet AGL
Clouds: sky clear below 12,000 feet AGL
Weather: automated observation with no human augmentation;
there may or may not be significant weather present at this time

METAR text: KMYR 200656Z AUTO 24004KT 10SM CLR 26/24 A3010 RMK AO2 SLP191 T02610239
Conditions at: KMYR (MYRTLE BEACH , SC, US) observed 0656 UTC 20 August 2019
Temperature: 26.1°C (79°F)
Dewpoint: 23.9°C (75°F) [RH = 88%]
Pressure (altimeter): 30.10 inches Hg (1019.4 mb)
[Sea-level pressure: 1019.1 mb]
Winds: from the WSW (240 degrees) at 5 MPH (4 knots; 2.1 m/s)
Visibility: 10 or more miles (16+ km)
Ceiling: at least 12,000 feet AGL
Clouds: sky clear below 12,000 feet AGL
Weather: automated observation with no human augmentation;
there may or may not be significant weather present at this time

METAR text: KMYR 200556Z AUTO 22004KT 10SM CLR 27/24 A3010 RMK AO2 SLP192 T02670239 10283 20267 56006
Conditions at: KMYR (MYRTLE BEACH , SC, US) observed 0556 UTC 20 August 2019
Temperature: 26.7°C (80°F)
Dewpoint: 23.9°C (75°F) [RH = 85%]
Pressure (altimeter): 30.10 inches Hg (1019.4 mb)
[Sea-level pressure: 1019.2 mb]
Winds: from the SW (220 degrees) at 5 MPH (4 knots; 2.1 m/s)
Visibility: 10 or more miles (16+ km)
Ceiling: at least 12,000 feet AGL
Clouds: sky clear below 12,000 feet AGL
Weather: automated observation with no human augmentation;
there may or may not be significant weather present at this time

METAR text: KMYR 200456Z AUTO 22007KT 10SM CLR 27/23 A3010 RMK AO2 SLP193 T02720233 403060250
Conditions at: KMYR (MYRTLE BEACH , SC, US) observed 0456 UTC 20 August 2019
Temperature: 27.2°C (81°F)
Dewpoint: 23.3°C (74°F) [RH = 79%]
Pressure (altimeter): 30.10 inches Hg (1019.4 mb)
[Sea-level pressure: 1019.3 mb]
Winds: from the SW (220 degrees) at 8 MPH (7 knots; 3.6 m/s)
Visibility: 10 or more miles (16+ km)
Ceiling: at least 12,000 feet AGL
Clouds: sky clear below 12,000 feet AGL
Weather: automated observation with no human augmentation;
there may or may not be significant weather present at this time

METAR text: KMYR 200356Z AUTO 21006KT 10SM CLR 27/24 A3011 RMK AO2 SLP195 T02720239
Conditions at: KMYR (MYRTLE BEACH , SC, US) observed 0356 UTC 20 August 2019
Temperature: 27.2°C (81°F)
Dewpoint: 23.9°C (75°F) [RH = 82%]
Pressure (altimeter): 30.11 inches Hg (1019.7 mb)
[Sea-level pressure: 1019.5 mb]
Winds: from the SSW (210 degrees) at 7 MPH (6 knots; 3.1 m/s)
Visibility: 10 or more miles (16+ km)
Ceiling: at least 12,000 feet AGL
Clouds: sky clear below 12,000 feet AGL
Weather: automated observation with no human augmentation;
there may or may not be significant weather present at this time

METAR text: KMYR 200256Z AUTO 21006KT 10SM CLR 27/23 A3012 RMK AO2 SLP199 T02720233 51018
Conditions at: KMYR (MYRTLE BEACH , SC, US) observed 0256 UTC 20 August 2019
Temperature: 27.2°C (81°F)
Dewpoint: 23.3°C (74°F) [RH = 79%]
Pressure (altimeter): 30.12 inches Hg (1020.1 mb)
[Sea-level pressure: 1019.9 mb]
Winds: from the SSW (210 degrees) at 7 MPH (6 knots; 3.1 m/s)
Visibility: 10 or more miles (16+ km)
Ceiling: at least 12,000 feet AGL
Clouds: sky clear below 12,000 feet AGL
Weather: automated observation with no human augmentation;
there may or may not be significant weather present at this time

METAR text: KMYR 200156Z 23004KT 10SM CLR 27/23 A3011 RMK AO2 SLP196 T02720233
Conditions at: KMYR (MYRTLE BEACH , SC, US) observed 0156 UTC 20 August 2019
Temperature: 27.2°C (81°F)
Dewpoint: 23.3°C (74°F) [RH = 79%]
Pressure (altimeter): 30.11 inches Hg (1019.7 mb)
[Sea-level pressure: 1019.6 mb]
Winds: from the SW (230 degrees) at 5 MPH (4 knots; 2.1 m/s)
Visibility: 10 or more miles (16+ km)
Ceiling: at least 12,000 feet AGL
Clouds: sky clear below 12,000 feet AGL
Weather: no significant weather observed at this time

Forecast for: KMYR (MYRTLE BEACH , SC, US)
Text: KMYR 211123Z 2112/2212 22007KT P6SM SCT250
Forecast period: 1200 to 1500 UTC 21 August 2019
Forecast type: FROM: standard forecast or significant change
Winds: from the SW (220 degrees) at 8 MPH (7 knots; 3.6 m/s)
Visibility: 6 or more miles 10+ km)
Ceiling: at least 12,000 feet AGL
Clouds: scattered clouds at 25000 feet AGL
Weather: no significant weather forecast for this period
Text: FM211500 20012KT P6SM SCT050 SCT250
Forecast period: 1500 UTC 21 August 2019 to 0300 UTC 22 August 2019
Forecast type: FROM: standard forecast or significant change
Winds: from the SSW (200 degrees) at 14 MPH (12 knots; 6.2 m/s)
Visibility: 6 or more miles 10+ km)
Ceiling: at least 12,000 feet AGL
Clouds: scattered clouds at 5000 feet AGL
scattered clouds at 25000 feet AGL
Weather: no significant weather forecast for this period
Text: FM220300 22008KT P6SM SCT250
Forecast period: 0300 to 1200 UTC 22 August 2019
Forecast type: FROM: standard forecast or significant change
Winds: from the SW (220 degrees) at 9 MPH (8 knots; 4.1 m/s)
Visibility: 6 or more miles 10+ km)
Ceiling: at least 12,000 feet AGL
Clouds: scattered clouds at 25000 feet AGL
Weather: no significant weather forecast for this period